Current Weather

Iran Shahr

Iran Shahr, Iran (OIZI)

Report from: Tuesday, March 5, 2024 12:00 AM UTC
Current time: Tuesday, March 5, 2024 1:06 AM UTC

Nearby weather – Weather history – Daily summaries
Weather forecast

Present weatherLight rain
Temperature13.0°C (55.4°F)
Dew point10.0°C (50.0°F)
Winds Calm
Visibility5 mi. (8 km)
Clouds Few clouds 2,300 ft. (701 m)
Ceiling: Overcast 8,000 ft. (2,438 m)
Altimeter30.06 in.Hg (1018 mB)
Relative humidity82 %
Density altitude-224 ft. (-68 m)
Flight conditions Marginal Visual Meteorological Conditions
Raw dataOIZI 050000Z 00000KT 8000 -RA FEW023 OVC080 13/10 Q1018 RERA
An error has occurred. This application may no longer respond until reloaded. Reload 🗙